sensor_id;sensor_type;location;lat;lon;timestamp;P1;durP1;ratioP1;P2;durP2;ratioP2
18875;SDS011;9570;50.854;13.778;2023-09-18T00:01:37;8.43;;;3.60;;
18875;SDS011;9570;50.854;13.778;2023-09-18T00:04:04;5.77;;;3.33;;
18875;SDS011;9570;50.854;13.778;2023-09-18T00:06:30;3.60;;;3.30;;
18875;SDS011;9570;50.854;13.778;2023-09-18T00:08:56;3.80;;;3.47;;
18875;SDS011;9570;50.854;13.778;2023-09-18T00:11:21;5.53;;;3.17;;
18875;SDS011;9570;50.854;13.778;2023-09-18T00:13:47;3.53;;;3.20;;
18875;SDS011;9570;50.854;13.778;2023-09-18T00:16:12;5.70;;;3.10;;
18875;SDS011;9570;50.854;13.778;2023-09-18T00:18:38;6.23;;;3.70;;
18875;SDS011;9570;50.854;13.778;2023-09-18T00:21:03;3.80;;;3.20;;
18875;SDS011;9570;50.854;13.778;2023-09-18T00:23:31;7.57;;;3.23;;
18875;SDS011;9570;50.854;13.778;2023-09-18T00:25:57;4.50;;;3.50;;
18875;SDS011;9570;50.854;13.778;2023-09-18T00:28:23;4.80;;;3.47;;
18875;SDS011;9570;50.854;13.778;2023-09-18T00:30:49;3.60;;;3.20;;
18875;SDS011;9570;50.854;13.778;2023-09-18T00:33:15;4.53;;;3.50;;
18875;SDS011;9570;50.854;13.778;2023-09-18T00:35:44;5.27;;;3.53;;
18875;SDS011;9570;50.854;13.778;2023-09-18T00:38:11;4.10;;;3.60;;
18875;SDS011;9570;50.854;13.778;2023-09-18T00:40:36;4.60;;;3.17;;
18875;SDS011;9570;50.854;13.778;2023-09-18T00:43:01;3.90;;;3.50;;
18875;SDS011;9570;50.854;13.778;2023-09-18T00:45:27;6.40;;;3.60;;
18875;SDS011;9570;50.854;13.778;2023-09-18T00:47:53;5.73;;;3.80;;
18875;SDS011;9570;50.854;13.778;2023-09-18T00:50:19;3.70;;;3.40;;
18875;SDS011;9570;50.854;13.778;2023-09-18T00:52:46;5.13;;;3.60;;
18875;SDS011;9570;50.854;13.778;2023-09-18T00:55:12;3.97;;;3.43;;
18875;SDS011;9570;50.854;13.778;2023-09-18T00:57:38;4.10;;;3.27;;
18875;SDS011;9570;50.854;13.778;2023-09-18T01:00:04;3.80;;;3.47;;
18875;SDS011;9570;50.854;13.778;2023-09-18T01:02:31;4.20;;;3.60;;
18875;SDS011;9570;50.854;13.778;2023-09-18T01:04:57;5.73;;;3.63;;
18875;SDS011;9570;50.854;13.778;2023-09-18T01:07:23;5.33;;;3.50;;
18875;SDS011;9570;50.854;13.778;2023-09-18T01:09:48;7.90;;;3.60;;
18875;SDS011;9570;50.854;13.778;2023-09-18T01:12:23;5.00;;;3.80;;
18875;SDS011;9570;50.854;13.778;2023-09-18T01:15:26;5.07;;;3.73;;
18875;SDS011;9570;50.854;13.778;2023-09-18T01:17:57;3.90;;;3.53;;
18875;SDS011;9570;50.854;13.778;2023-09-18T01:20:23;4.50;;;3.80;;
18875;SDS011;9570;50.854;13.778;2023-09-18T01:22:48;4.03;;;3.60;;
18875;SDS011;9570;50.854;13.778;2023-09-18T01:25:14;4.33;;;3.90;;
18875;SDS011;9570;50.854;13.778;2023-09-18T01:27:40;4.00;;;3.60;;
18875;SDS011;9570;50.854;13.778;2023-09-18T01:30:07;4.83;;;3.73;;
18875;SDS011;9570;50.854;13.778;2023-09-18T01:32:32;4.53;;;3.97;;
18875;SDS011;9570;50.854;13.778;2023-09-18T01:35:02;4.90;;;3.57;;
18875;SDS011;9570;50.854;13.778;2023-09-18T01:37:31;5.43;;;3.80;;
18875;SDS011;9570;50.854;13.778;2023-09-18T01:40:00;4.00;;;3.57;;
18875;SDS011;9570;50.854;13.778;2023-09-18T01:42:26;4.10;;;3.50;;
18875;SDS011;9570;50.854;13.778;2023-09-18T01:44:52;4.10;;;3.70;;
18875;SDS011;9570;50.854;13.778;2023-09-18T01:47:19;4.97;;;3.80;;
18875;SDS011;9570;50.854;13.778;2023-09-18T01:49:48;4.97;;;4.20;;
18875;SDS011;9570;50.854;13.778;2023-09-18T01:52:14;4.13;;;3.70;;
18875;SDS011;9570;50.854;13.778;2023-09-18T01:54:39;6.53;;;4.10;;
18875;SDS011;9570;50.854;13.778;2023-09-18T01:57:05;7.80;;;4.30;;
18875;SDS011;9570;50.854;13.778;2023-09-18T01:59:34;4.33;;;3.70;;
18875;SDS011;9570;50.854;13.778;2023-09-18T02:02:00;4.30;;;3.57;;
18875;SDS011;9570;50.854;13.778;2023-09-18T02:04:28;6.57;;;3.70;;
18875;SDS011;9570;50.854;13.778;2023-09-18T02:06:54;5.23;;;3.83;;
18875;SDS011;9570;50.854;13.778;2023-09-18T02:09:20;5.23;;;4.00;;
18875;SDS011;9570;50.854;13.778;2023-09-18T02:11:46;6.90;;;3.70;;
18875;SDS011;9570;50.854;13.778;2023-09-18T02:14:13;5.10;;;3.93;;
18875;SDS011;9570;50.854;13.778;2023-09-18T02:16:39;6.97;;;4.13;;
18875;SDS011;9570;50.854;13.778;2023-09-18T02:19:06;5.60;;;4.13;;
18875;SDS011;9570;50.854;13.778;2023-09-18T02:21:33;4.97;;;4.17;;
18875;SDS011;9570;50.854;13.778;2023-09-18T02:23:59;5.20;;;4.03;;
18875;SDS011;9570;50.854;13.778;2023-09-18T02:26:24;4.53;;;4.10;;
18875;SDS011;9570;50.854;13.778;2023-09-18T02:28:53;5.40;;;4.13;;
18875;SDS011;9570;50.854;13.778;2023-09-18T02:31:19;4.57;;;4.03;;
18875;SDS011;9570;50.854;13.778;2023-09-18T02:33:48;4.40;;;4.03;;
18875;SDS011;9570;50.854;13.778;2023-09-18T02:36:13;4.63;;;4.07;;
18875;SDS011;9570;50.854;13.778;2023-09-18T02:38:40;4.57;;;3.77;;
18875;SDS011;9570;50.854;13.778;2023-09-18T02:41:05;5.80;;;4.40;;
18875;SDS011;9570;50.854;13.778;2023-09-18T02:43:31;5.30;;;4.33;;
18875;SDS011;9570;50.854;13.778;2023-09-18T02:45:56;4.20;;;3.80;;
18875;SDS011;9570;50.854;13.778;2023-09-18T02:48:22;5.97;;;4.20;;
18875;SDS011;9570;50.854;13.778;2023-09-18T02:50:47;4.70;;;4.27;;
18875;SDS011;9570;50.854;13.778;2023-09-18T02:53:17;4.97;;;4.10;;
18875;SDS011;9570;50.854;13.778;2023-09-18T02:55:44;4.97;;;4.27;;
18875;SDS011;9570;50.854;13.778;2023-09-18T02:58:11;5.27;;;4.03;;
18875;SDS011;9570;50.854;13.778;2023-09-18T03:00:43;4.77;;;3.70;;
18875;SDS011;9570;50.854;13.778;2023-09-18T03:03:09;5.83;;;3.70;;
18875;SDS011;9570;50.854;13.778;2023-09-18T03:05:35;6.37;;;4.00;;
18875;SDS011;9570;50.854;13.778;2023-09-18T03:08:01;7.53;;;4.03;;
18875;SDS011;9570;50.854;13.778;2023-09-18T03:10:27;3.97;;;3.57;;
18875;SDS011;9570;50.854;13.778;2023-09-18T03:12:52;4.80;;;3.73;;
18875;SDS011;9570;50.854;13.778;2023-09-18T03:15:18;5.07;;;3.50;;
18875;SDS011;9570;50.854;13.778;2023-09-18T03:17:44;6.20;;;3.93;;
18875;SDS011;9570;50.854;13.778;2023-09-18T03:20:09;5.07;;;3.97;;
18875;SDS011;9570;50.854;13.778;2023-09-18T03:22:35;5.30;;;4.40;;
18875;SDS011;9570;50.854;13.778;2023-09-18T03:25:01;4.47;;;3.93;;
18875;SDS011;9570;50.854;13.778;2023-09-18T03:27:27;5.03;;;4.53;;
18875;SDS011;9570;50.854;13.778;2023-09-18T03:29:57;4.90;;;4.40;;
18875;SDS011;9570;50.854;13.778;2023-09-18T03:32:23;4.30;;;4.00;;
18875;SDS011;9570;50.854;13.778;2023-09-18T03:34:51;5.33;;;4.43;;
18875;SDS011;9570;50.854;13.778;2023-09-18T03:37:17;6.40;;;4.10;;
18875;SDS011;9570;50.854;13.778;2023-09-18T03:39:43;4.53;;;4.13;;
18875;SDS011;9570;50.854;13.778;2023-09-18T03:42:09;5.40;;;4.37;;
18875;SDS011;9570;50.854;13.778;2023-09-18T03:44:34;5.07;;;4.13;;
18875;SDS011;9570;50.854;13.778;2023-09-18T03:47:00;4.97;;;4.47;;
18875;SDS011;9570;50.854;13.778;2023-09-18T03:49:27;5.33;;;4.83;;
18875;SDS011;9570;50.854;13.778;2023-09-18T03:51:53;6.37;;;4.20;;
18875;SDS011;9570;50.854;13.778;2023-09-18T03:54:18;4.57;;;4.17;;
18875;SDS011;9570;50.854;13.778;2023-09-18T03:56:44;5.07;;;4.60;;
18875;SDS011;9570;50.854;13.778;2023-09-18T03:59:11;4.73;;;4.33;;
18875;SDS011;9570;50.854;13.778;2023-09-18T04:01:37;5.43;;;4.50;;
18875;SDS011;9570;50.854;13.778;2023-09-18T04:04:02;5.13;;;4.63;;
18875;SDS011;9570;50.854;13.778;2023-09-18T04:06:35;5.27;;;4.43;;
18875;SDS011;9570;50.854;13.778;2023-09-18T04:09:02;5.10;;;4.60;;
18875;SDS011;9570;50.854;13.778;2023-09-18T04:11:28;6.43;;;4.67;;
18875;SDS011;9570;50.854;13.778;2023-09-18T04:13:57;5.10;;;4.70;;
18875;SDS011;9570;50.854;13.778;2023-09-18T04:16:23;5.27;;;4.77;;
18875;SDS011;9570;50.854;13.778;2023-09-18T04:18:49;4.80;;;4.30;;
18875;SDS011;9570;50.854;13.778;2023-09-18T04:21:14;4.87;;;4.07;;
18875;SDS011;9570;50.854;13.778;2023-09-18T04:23:40;4.40;;;4.00;;
18875;SDS011;9570;50.854;13.778;2023-09-18T04:26:05;5.27;;;4.37;;
18875;SDS011;9570;50.854;13.778;2023-09-18T04:28:31;5.30;;;4.80;;
18875;SDS011;9570;50.854;13.778;2023-09-18T04:30:56;6.30;;;4.60;;
18875;SDS011;9570;50.854;13.778;2023-09-18T04:33:22;6.90;;;4.73;;
18875;SDS011;9570;50.854;13.778;2023-09-18T04:35:47;6.70;;;5.10;;
18875;SDS011;9570;50.854;13.778;2023-09-18T04:38:13;4.83;;;4.33;;
18875;SDS011;9570;50.854;13.778;2023-09-18T04:40:44;5.10;;;4.50;;
18875;SDS011;9570;50.854;13.778;2023-09-18T04:43:10;5.00;;;4.50;;
18875;SDS011;9570;50.854;13.778;2023-09-18T04:45:36;6.27;;;4.33;;
18875;SDS011;9570;50.854;13.778;2023-09-18T04:48:02;5.13;;;4.63;;
18875;SDS011;9570;50.854;13.778;2023-09-18T04:50:28;5.87;;;4.43;;
18875;SDS011;9570;50.854;13.778;2023-09-18T04:52:54;10.17;;;4.27;;
18875;SDS011;9570;50.854;13.778;2023-09-18T04:55:21;5.97;;;4.77;;
18875;SDS011;9570;50.854;13.778;2023-09-18T04:57:46;4.80;;;4.30;;
18875;SDS011;9570;50.854;13.778;2023-09-18T05:00:12;5.63;;;4.50;;
18875;SDS011;9570;50.854;13.778;2023-09-18T05:02:38;4.90;;;4.50;;
18875;SDS011;9570;50.854;13.778;2023-09-18T05:05:04;4.77;;;4.37;;
18875;SDS011;9570;50.854;13.778;2023-09-18T05:07:30;4.80;;;4.37;;
18875;SDS011;9570;50.854;13.778;2023-09-18T05:09:57;5.07;;;4.60;;
18875;SDS011;9570;50.854;13.778;2023-09-18T05:12:23;5.37;;;4.70;;
18875;SDS011;9570;50.854;13.778;2023-09-18T05:14:48;5.60;;;4.90;;
18875;SDS011;9570;50.854;13.778;2023-09-18T05:17:14;6.20;;;5.30;;
18875;SDS011;9570;50.854;13.778;2023-09-18T05:19:40;8.27;;;5.33;;
18875;SDS011;9570;50.854;13.778;2023-09-18T05:22:08;5.97;;;5.37;;
18875;SDS011;9570;50.854;13.778;2023-09-18T05:24:37;8.03;;;5.50;;
18875;SDS011;9570;50.854;13.778;2023-09-18T05:27:03;6.87;;;5.17;;
18875;SDS011;9570;50.854;13.778;2023-09-18T05:29:31;6.07;;;5.03;;
18875;SDS011;9570;50.854;13.778;2023-09-18T05:31:56;6.37;;;5.60;;
18875;SDS011;9570;50.854;13.778;2023-09-18T05:34:22;6.00;;;5.07;;
18875;SDS011;9570;50.854;13.778;2023-09-18T05:36:47;7.50;;;5.30;;
18875;SDS011;9570;50.854;13.778;2023-09-18T05:39:14;6.50;;;5.17;;
18875;SDS011;9570;50.854;13.778;2023-09-18T05:41:40;6.40;;;5.03;;
18875;SDS011;9570;50.854;13.778;2023-09-18T05:44:06;7.10;;;5.40;;
18875;SDS011;9570;50.854;13.778;2023-09-18T05:46:33;6.10;;;5.50;;
18875;SDS011;9570;50.854;13.778;2023-09-18T05:48:59;5.77;;;5.17;;
18875;SDS011;9570;50.854;13.778;2023-09-18T05:51:25;6.00;;;5.40;;
18875;SDS011;9570;50.854;13.778;2023-09-18T05:53:51;6.30;;;5.40;;
18875;SDS011;9570;50.854;13.778;2023-09-18T05:56:16;5.63;;;5.03;;
18875;SDS011;9570;50.854;13.778;2023-09-18T05:58:42;6.17;;;5.10;;
18875;SDS011;9570;50.854;13.778;2023-09-18T06:01:08;6.73;;;5.23;;
18875;SDS011;9570;50.854;13.778;2023-09-18T06:03:34;5.80;;;5.30;;
18875;SDS011;9570;50.854;13.778;2023-09-18T06:06:02;7.40;;;5.17;;
18875;SDS011;9570;50.854;13.778;2023-09-18T06:08:29;6.43;;;5.10;;
18875;SDS011;9570;50.854;13.778;2023-09-18T06:10:55;7.97;;;6.17;;
18875;SDS011;9570;50.854;13.778;2023-09-18T06:13:21;6.83;;;5.93;;
18875;SDS011;9570;50.854;13.778;2023-09-18T06:15:49;7.47;;;5.77;;
18875;SDS011;9570;50.854;13.778;2023-09-18T06:18:16;7.67;;;5.70;;
18875;SDS011;9570;50.854;13.778;2023-09-18T06:20:41;6.20;;;5.60;;
18875;SDS011;9570;50.854;13.778;2023-09-18T06:23:08;6.17;;;5.57;;
18875;SDS011;9570;50.854;13.778;2023-09-18T06:25:34;6.33;;;5.73;;
18875;SDS011;9570;50.854;13.778;2023-09-18T06:27:59;9.17;;;6.00;;
18875;SDS011;9570;50.854;13.778;2023-09-18T06:30:27;6.93;;;5.97;;
18875;SDS011;9570;50.854;13.778;2023-09-18T06:32:54;7.23;;;6.30;;
18875;SDS011;9570;50.854;13.778;2023-09-18T06:35:20;7.10;;;6.40;;
18875;SDS011;9570;50.854;13.778;2023-09-18T06:37:45;6.33;;;5.73;;
18875;SDS011;9570;50.854;13.778;2023-09-18T06:40:11;6.93;;;6.23;;
18875;SDS011;9570;50.854;13.778;2023-09-18T06:42:37;6.30;;;5.70;;
18875;SDS011;9570;50.854;13.778;2023-09-18T06:45:02;6.23;;;5.60;;
18875;SDS011;9570;50.854;13.778;2023-09-18T06:47:31;13.73;;;6.60;;
18875;SDS011;9570;50.854;13.778;2023-09-18T06:49:57;6.73;;;5.80;;
18875;SDS011;9570;50.854;13.778;2023-09-18T06:52:23;6.67;;;6.00;;
18875;SDS011;9570;50.854;13.778;2023-09-18T06:54:50;8.67;;;6.13;;
18875;SDS011;9570;50.854;13.778;2023-09-18T06:57:15;6.37;;;5.77;;
18875;SDS011;9570;50.854;13.778;2023-09-18T06:59:41;6.70;;;6.00;;
18875;SDS011;9570;50.854;13.778;2023-09-18T07:02:06;6.53;;;5.93;;
18875;SDS011;9570;50.854;13.778;2023-09-18T07:04:32;8.03;;;5.77;;
18875;SDS011;9570;50.854;13.778;2023-09-18T07:06:57;6.70;;;6.10;;
18875;SDS011;9570;50.854;13.778;2023-09-18T07:09:23;6.67;;;6.07;;
18875;SDS011;9570;50.854;13.778;2023-09-18T07:11:49;6.27;;;5.77;;
18875;SDS011;9570;50.854;13.778;2023-09-18T07:14:15;7.60;;;5.07;;
18875;SDS011;9570;50.854;13.778;2023-09-18T07:16:41;5.60;;;5.10;;
18875;SDS011;9570;50.854;13.778;2023-09-18T07:19:06;5.50;;;4.73;;
18875;SDS011;9570;50.854;13.778;2023-09-18T07:21:36;5.77;;;5.27;;
18875;SDS011;9570;50.854;13.778;2023-09-18T07:24:02;7.03;;;4.73;;
18875;SDS011;9570;50.854;13.778;2023-09-18T07:26:28;5.63;;;5.00;;
18875;SDS011;9570;50.854;13.778;2023-09-18T07:28:54;5.97;;;5.00;;
18875;SDS011;9570;50.854;13.778;2023-09-18T07:31:19;4.70;;;4.20;;
18875;SDS011;9570;50.854;13.778;2023-09-18T07:33:45;7.03;;;4.50;;
18875;SDS011;9570;50.854;13.778;2023-09-18T07:36:10;10.23;;;4.37;;
18875;SDS011;9570;50.854;13.778;2023-09-18T07:38:36;4.30;;;3.90;;
18875;SDS011;9570;50.854;13.778;2023-09-18T07:41:02;6.07;;;4.23;;
18875;SDS011;9570;50.854;13.778;2023-09-18T07:43:28;4.07;;;3.60;;
18875;SDS011;9570;50.854;13.778;2023-09-18T07:45:53;5.10;;;3.77;;
18875;SDS011;9570;50.854;13.778;2023-09-18T07:48:19;4.50;;;3.87;;
18875;SDS011;9570;50.854;13.778;2023-09-18T07:50:46;4.87;;;4.00;;
18875;SDS011;9570;50.854;13.778;2023-09-18T07:53:14;5.70;;;4.07;;
18875;SDS011;9570;50.854;13.778;2023-09-18T07:55:40;4.40;;;4.00;;
18875;SDS011;9570;50.854;13.778;2023-09-18T07:58:06;5.03;;;3.77;;
18875;SDS011;9570;50.854;13.778;2023-09-18T08:00:31;5.17;;;4.07;;
18875;SDS011;9570;50.854;13.778;2023-09-18T08:02:58;4.27;;;3.60;;
18875;SDS011;9570;50.854;13.778;2023-09-18T08:05:25;4.97;;;4.00;;
18875;SDS011;9570;50.854;13.778;2023-09-18T08:07:56;6.17;;;3.93;;
18875;SDS011;9570;50.854;13.778;2023-09-18T08:10:24;5.60;;;3.73;;
18875;SDS011;9570;50.854;13.778;2023-09-18T08:12:50;6.60;;;3.90;;
18875;SDS011;9570;50.854;13.778;2023-09-18T08:15:17;3.93;;;3.63;;
18875;SDS011;9570;50.854;13.778;2023-09-18T08:17:44;4.33;;;3.87;;
18875;SDS011;9570;50.854;13.778;2023-09-18T08:20:11;4.23;;;3.83;;
18875;SDS011;9570;50.854;13.778;2023-09-18T08:22:39;4.30;;;3.90;;
18875;SDS011;9570;50.854;13.778;2023-09-18T08:25:06;5.67;;;3.67;;
18875;SDS011;9570;50.854;13.778;2023-09-18T08:27:35;3.93;;;3.63;;
18875;SDS011;9570;50.854;13.778;2023-09-18T08:30:09;4.90;;;3.50;;
18875;SDS011;9570;50.854;13.778;2023-09-18T08:32:38;4.73;;;4.10;;
18875;SDS011;9570;50.854;13.778;2023-09-18T08:35:05;4.63;;;3.80;;
18875;SDS011;9570;50.854;13.778;2023-09-18T08:37:31;5.70;;;3.23;;
18875;SDS011;9570;50.854;13.778;2023-09-18T08:39:56;3.97;;;3.40;;
18875;SDS011;9570;50.854;13.778;2023-09-18T08:42:23;3.70;;;3.40;;
18875;SDS011;9570;50.854;13.778;2023-09-18T08:44:51;5.10;;;3.63;;
18875;SDS011;9570;50.854;13.778;2023-09-18T08:47:18;4.13;;;3.43;;
18875;SDS011;9570;50.854;13.778;2023-09-18T08:49:44;4.87;;;3.70;;
18875;SDS011;9570;50.854;13.778;2023-09-18T08:52:13;4.47;;;3.23;;
18875;SDS011;9570;50.854;13.778;2023-09-18T08:54:40;3.73;;;3.43;;
18875;SDS011;9570;50.854;13.778;2023-09-18T08:57:08;3.80;;;3.50;;
18875;SDS011;9570;50.854;13.778;2023-09-18T08:59:34;4.90;;;3.00;;
18875;SDS011;9570;50.854;13.778;2023-09-18T09:02:01;3.30;;;3.00;;
18875;SDS011;9570;50.854;13.778;2023-09-18T09:04:27;4.50;;;3.27;;
18875;SDS011;9570;50.854;13.778;2023-09-18T09:06:53;4.33;;;3.73;;
18875;SDS011;9570;50.854;13.778;2023-09-18T09:09:22;3.77;;;3.17;;
18875;SDS011;9570;50.854;13.778;2023-09-18T09:11:49;3.50;;;3.20;;
18875;SDS011;9570;50.854;13.778;2023-09-18T09:14:15;4.70;;;3.20;;
18875;SDS011;9570;50.854;13.778;2023-09-18T09:16:49;3.60;;;3.30;;
18875;SDS011;9570;50.854;13.778;2023-09-18T09:19:16;6.30;;;3.37;;
18875;SDS011;9570;50.854;13.778;2023-09-18T09:21:42;3.70;;;3.40;;
18875;SDS011;9570;50.854;13.778;2023-09-18T09:24:09;5.60;;;3.37;;
18875;SDS011;9570;50.854;13.778;2023-09-18T09:26:39;4.60;;;3.53;;
18875;SDS011;9570;50.854;13.778;2023-09-18T09:29:26;4.20;;;3.60;;
18875;SDS011;9570;50.854;13.778;2023-09-18T09:31:51;3.77;;;3.37;;
18875;SDS011;9570;50.854;13.778;2023-09-18T09:34:26;4.03;;;3.63;;
18875;SDS011;9570;50.854;13.778;2023-09-18T09:36:55;4.90;;;3.87;;
18875;SDS011;9570;50.854;13.778;2023-09-18T09:39:21;4.40;;;3.30;;
18875;SDS011;9570;50.854;13.778;2023-09-18T09:41:50;3.87;;;3.37;;
18875;SDS011;9570;50.854;13.778;2023-09-18T09:44:16;4.13;;;3.60;;
18875;SDS011;9570;50.854;13.778;2023-09-18T09:46:49;4.30;;;3.57;;
18875;SDS011;9570;50.854;13.778;2023-09-18T09:49:16;3.57;;;3.27;;
18875;SDS011;9570;50.854;13.778;2023-09-18T09:51:44;4.03;;;3.63;;
18875;SDS011;9570;50.854;13.778;2023-09-18T09:54:10;5.00;;;3.40;;
18875;SDS011;9570;50.854;13.778;2023-09-18T09:56:40;6.13;;;4.17;;
18875;SDS011;9570;50.854;13.778;2023-09-18T09:59:08;4.90;;;3.70;;
18875;SDS011;9570;50.854;13.778;2023-09-18T10:01:34;5.30;;;4.23;;
18875;SDS011;9570;50.854;13.778;2023-09-18T10:04:04;5.13;;;3.93;;
18875;SDS011;9570;50.854;13.778;2023-09-18T10:06:34;4.10;;;3.77;;
18875;SDS011;9570;50.854;13.778;2023-09-18T10:09:02;5.23;;;4.00;;
18875;SDS011;9570;50.854;13.778;2023-09-18T10:11:30;5.77;;;4.27;;
18875;SDS011;9570;50.854;13.778;2023-09-18T10:14:07;5.10;;;4.00;;
18875;SDS011;9570;50.854;13.778;2023-09-18T10:16:39;5.00;;;4.53;;
18875;SDS011;9570;50.854;13.778;2023-09-18T10:19:09;6.00;;;4.70;;
18875;SDS011;9570;50.854;13.778;2023-09-18T10:24:26;8.40;;;4.80;;
18875;SDS011;9570;50.854;13.778;2023-09-18T10:27:01;7.47;;;4.97;;
18875;SDS011;9570;50.854;13.778;2023-09-18T10:29:29;5.90;;;5.30;;
18875;SDS011;9570;50.854;13.778;2023-09-18T10:31:56;8.57;;;5.33;;
18875;SDS011;9570;50.854;13.778;2023-09-18T10:34:22;6.03;;;5.20;;
18875;SDS011;9570;50.854;13.778;2023-09-18T10:36:49;7.33;;;5.43;;
18875;SDS011;9570;50.854;13.778;2023-09-18T10:39:16;5.97;;;5.37;;
18875;SDS011;9570;50.854;13.778;2023-09-18T10:41:48;5.90;;;5.00;;
18875;SDS011;9570;50.854;13.778;2023-09-18T10:44:15;7.83;;;5.27;;
18875;SDS011;9570;50.854;13.778;2023-09-18T10:46:42;5.87;;;4.90;;
18875;SDS011;9570;50.854;13.778;2023-09-18T10:49:12;8.70;;;5.57;;
18875;SDS011;9570;50.854;13.778;2023-09-18T10:51:38;5.73;;;4.97;;
18875;SDS011;9570;50.854;13.778;2023-09-18T10:54:07;5.30;;;4.80;;
18875;SDS011;9570;50.854;13.778;2023-09-18T10:56:39;5.40;;;4.90;;
18875;SDS011;9570;50.854;13.778;2023-09-18T10:59:07;6.83;;;4.90;;
18875;SDS011;9570;50.854;13.778;2023-09-18T11:01:34;5.83;;;4.97;;
18875;SDS011;9570;50.854;13.778;2023-09-18T11:04:01;5.63;;;5.00;;
18875;SDS011;9570;50.854;13.778;2023-09-18T11:07:20;8.03;;;5.03;;
18875;SDS011;9570;50.854;13.778;2023-09-18T11:09:21;5.40;;;4.90;;
18875;SDS011;9570;50.854;13.778;2023-09-18T11:20:07;6.83;;;5.07;;
18875;SDS011;9570;50.854;13.778;2023-09-18T11:25:29;5.50;;;5.00;;
18875;SDS011;9570;50.854;13.778;2023-09-18T11:28:14;6.60;;;5.20;;
18875;SDS011;9570;50.854;13.778;2023-09-18T11:30:56;5.97;;;5.30;;
18875;SDS011;9570;50.854;13.778;2023-09-18T11:33:30;6.40;;;5.27;;
18875;SDS011;9570;50.854;13.778;2023-09-18T11:36:04;6.13;;;5.50;;
18875;SDS011;9570;50.854;13.778;2023-09-18T11:38:32;7.23;;;4.77;;
18875;SDS011;9570;50.854;13.778;2023-09-18T11:41:19;7.73;;;5.13;;
18875;SDS011;9570;50.854;13.778;2023-09-18T11:43:47;5.73;;;5.17;;
18875;SDS011;9570;50.854;13.778;2023-09-18T11:46:17;6.50;;;4.90;;
18875;SDS011;9570;50.854;13.778;2023-09-18T11:48:44;5.80;;;5.00;;
18875;SDS011;9570;50.854;13.778;2023-09-18T11:51:11;5.40;;;4.83;;
18875;SDS011;9570;50.854;13.778;2023-09-18T11:53:39;5.77;;;4.63;;
18875;SDS011;9570;50.854;13.778;2023-09-18T11:56:10;5.57;;;4.60;;
18875;SDS011;9570;50.854;13.778;2023-09-18T11:58:47;5.33;;;4.60;;
18875;SDS011;9570;50.854;13.778;2023-09-18T12:01:14;5.97;;;4.40;;
18875;SDS011;9570;50.854;13.778;2023-09-18T12:03:42;10.53;;;4.40;;
18875;SDS011;9570;50.854;13.778;2023-09-18T12:06:08;6.47;;;4.10;;
18875;SDS011;9570;50.854;13.778;2023-09-18T12:08:37;8.40;;;4.33;;
18875;SDS011;9570;50.854;13.778;2023-09-18T12:11:04;5.60;;;4.17;;
18875;SDS011;9570;50.854;13.778;2023-09-18T12:13:30;4.80;;;4.27;;
18875;SDS011;9570;50.854;13.778;2023-09-18T12:16:00;4.33;;;3.90;;
18875;SDS011;9570;50.854;13.778;2023-09-18T12:18:30;5.57;;;4.13;;
18875;SDS011;9570;50.854;13.778;2023-09-18T12:20:57;4.70;;;3.90;;
18875;SDS011;9570;50.854;13.778;2023-09-18T12:23:25;4.60;;;4.00;;
18875;SDS011;9570;50.854;13.778;2023-09-18T12:25:56;4.70;;;3.97;;
18875;SDS011;9570;50.854;13.778;2023-09-18T12:28:24;5.70;;;4.27;;
18875;SDS011;9570;50.854;13.778;2023-09-18T12:30:53;5.77;;;4.10;;
18875;SDS011;9570;50.854;13.778;2023-09-18T12:33:21;14.60;;;4.40;;
18875;SDS011;9570;50.854;13.778;2023-09-18T12:35:47;6.47;;;3.73;;
18875;SDS011;9570;50.854;13.778;2023-09-18T12:38:17;7.33;;;3.83;;
18875;SDS011;9570;50.854;13.778;2023-09-18T12:40:51;6.27;;;3.57;;
18875;SDS011;9570;50.854;13.778;2023-09-18T12:43:17;7.10;;;3.77;;
18875;SDS011;9570;50.854;13.778;2023-09-18T12:45:43;6.33;;;3.63;;
18875;SDS011;9570;50.854;13.778;2023-09-18T12:48:11;6.37;;;3.10;;
18875;SDS011;9570;50.854;13.778;2023-09-18T12:50:37;7.67;;;3.60;;
18875;SDS011;9570;50.854;13.778;2023-09-18T12:53:12;9.03;;;3.70;;
18875;SDS011;9570;50.854;13.778;2023-09-18T12:55:39;11.40;;;3.53;;
18875;SDS011;9570;50.854;13.778;2023-09-18T12:58:05;6.50;;;3.50;;
18875;SDS011;9570;50.854;13.778;2023-09-18T13:00:34;5.87;;;3.53;;
18875;SDS011;9570;50.854;13.778;2023-09-18T13:03:00;6.67;;;3.10;;
18875;SDS011;9570;50.854;13.778;2023-09-18T13:05:29;6.47;;;3.07;;
18875;SDS011;9570;50.854;13.778;2023-09-18T13:08:00;9.47;;;3.47;;
18875;SDS011;9570;50.854;13.778;2023-09-18T13:10:27;8.37;;;3.33;;
18875;SDS011;9570;50.854;13.778;2023-09-18T13:12:53;8.00;;;3.07;;
18875;SDS011;9570;50.854;13.778;2023-09-18T13:15:30;8.07;;;3.63;;
18875;SDS011;9570;50.854;13.778;2023-09-18T13:18:00;10.93;;;3.80;;
18875;SDS011;9570;50.854;13.778;2023-09-18T13:20:34;5.80;;;3.10;;
18875;SDS011;9570;50.854;13.778;2023-09-18T13:23:00;6.63;;;3.73;;
18875;SDS011;9570;50.854;13.778;2023-09-18T13:25:29;10.00;;;3.60;;
18875;SDS011;9570;50.854;13.778;2023-09-18T13:28:00;5.77;;;3.47;;
18875;SDS011;9570;50.854;13.778;2023-09-18T13:30:27;5.53;;;3.43;;
18875;SDS011;9570;50.854;13.778;2023-09-18T13:33:00;6.90;;;3.30;;
18875;SDS011;9570;50.854;13.778;2023-09-18T13:35:34;9.13;;;3.33;;
18875;SDS011;9570;50.854;13.778;2023-09-18T13:38:02;8.90;;;3.20;;
18875;SDS011;9570;50.854;13.778;2023-09-18T13:40:32;7.40;;;3.63;;
18875;SDS011;9570;50.854;13.778;2023-09-18T13:43:00;6.30;;;3.43;;
18875;SDS011;9570;50.854;13.778;2023-09-18T13:45:28;8.77;;;3.83;;
18875;SDS011;9570;50.854;13.778;2023-09-18T13:47:54;7.60;;;3.90;;
18875;SDS011;9570;50.854;13.778;2023-09-18T13:50:19;7.87;;;3.83;;
18875;SDS011;9570;50.854;13.778;2023-09-18T13:52:45;10.60;;;3.60;;
18875;SDS011;9570;50.854;13.778;2023-09-18T13:55:10;9.20;;;3.77;;
18875;SDS011;9570;50.854;13.778;2023-09-18T13:57:36;7.07;;;3.10;;
18875;SDS011;9570;50.854;13.778;2023-09-18T14:00:02;7.27;;;3.83;;
18875;SDS011;9570;50.854;13.778;2023-09-18T14:02:34;8.80;;;3.43;;
18875;SDS011;9570;50.854;13.778;2023-09-18T14:05:00;4.90;;;3.20;;
18875;SDS011;9570;50.854;13.778;2023-09-18T14:07:25;6.43;;;3.33;;
18875;SDS011;9570;50.854;13.778;2023-09-18T14:09:51;7.10;;;3.63;;
18875;SDS011;9570;50.854;13.778;2023-09-18T14:12:16;6.37;;;3.63;;
18875;SDS011;9570;50.854;13.778;2023-09-18T14:14:42;7.60;;;3.80;;
18875;SDS011;9570;50.854;13.778;2023-09-18T14:17:09;7.93;;;3.30;;
18875;SDS011;9570;50.854;13.778;2023-09-18T14:19:35;6.43;;;3.20;;
18875;SDS011;9570;50.854;13.778;2023-09-18T14:22:03;6.80;;;3.17;;
18875;SDS011;9570;50.854;13.778;2023-09-18T14:24:30;8.83;;;3.20;;
18875;SDS011;9570;50.854;13.778;2023-09-18T14:26:56;4.10;;;2.70;;
18875;SDS011;9570;50.854;13.778;2023-09-18T14:29:21;8.63;;;2.80;;
18875;SDS011;9570;50.854;13.778;2023-09-18T14:31:47;6.03;;;2.10;;
18875;SDS011;9570;50.854;13.778;2023-09-18T14:34:13;7.00;;;2.43;;
18875;SDS011;9570;50.854;13.778;2023-09-18T14:36:39;9.37;;;2.80;;
18875;SDS011;9570;50.854;13.778;2023-09-18T14:39:05;9.47;;;2.50;;
18875;SDS011;9570;50.854;13.778;2023-09-18T14:41:36;8.60;;;2.37;;
18875;SDS011;9570;50.854;13.778;2023-09-18T14:44:06;6.23;;;2.10;;
18875;SDS011;9570;50.854;13.778;2023-09-18T14:46:33;6.30;;;2.30;;
18875;SDS011;9570;50.854;13.778;2023-09-18T14:49:00;7.43;;;2.33;;
18875;SDS011;9570;50.854;13.778;2023-09-18T14:51:26;13.50;;;2.60;;
18875;SDS011;9570;50.854;13.778;2023-09-18T14:53:53;11.47;;;2.97;;
18875;SDS011;9570;50.854;13.778;2023-09-18T14:56:19;10.87;;;2.83;;
18875;SDS011;9570;50.854;13.778;2023-09-18T14:58:44;10.47;;;2.80;;
18875;SDS011;9570;50.854;13.778;2023-09-18T15:01:10;9.90;;;2.90;;
18875;SDS011;9570;50.854;13.778;2023-09-18T15:03:36;6.63;;;2.60;;